MAPA DE AEROPUERTO

INFORMACIÓN METAR y TAF


Deprecated: The each() function is deprecated. This message will be suppressed on further calls in /home/customer/www/clickair-va.com/public_html/VAM/vam/helpers/get_metar.php on line 20
METAR FOR LTAI
ADDS - METARS form results

(1142 UTC 23 January 2023)
Data provider http://aviationweather.gov/metar/data/
 
METAR text: LTAI 231120Z VRB03KT CAVOK 19/07 Q1021 NOSIG RMK RWY18C VRB02KT RWY36R 20004KT 160V230 RWY18L 23003KT 190V330
Conditions at: LTAI (ANTALYA (CIV/MIL, TR) observed 1120 UTC 23 January 2023
Temperature: 19.0°C (66°F)
Dewpoint: 7.0°C (45°F) [RH = 46%]
Pressure (altimeter): 30.15 inches Hg (1021.0 mb)
Winds: variable direction winds at 3 MPH (3 knots; 1.5 m/s)
Visibility: 6 or more miles (10+ km)
Ceiling: ceiling and visibility are OK
Clouds: unknown
Weather: no significant weather observed at this time

METAR text: LTAI 231050Z VRB02KT CAVOK 19/07 Q1022 NOSIG RMK RWY18C 16004KT 140V200 RWY36R 21003KT 130V300 RWY18L 23003KT 190V330
Conditions at: LTAI (ANTALYA (CIV/MIL, TR) observed 1050 UTC 23 January 2023
Temperature: 19.0°C (66°F)
Dewpoint: 7.0°C (45°F) [RH = 46%]
Pressure (altimeter): 30.18 inches Hg (1022.0 mb)
Winds: variable direction winds at 2 MPH (2 knots; 1.0 m/s)
Visibility: 6 or more miles (10+ km)
Ceiling: ceiling and visibility are OK
Clouds: unknown
Weather: no significant weather observed at this time

Forecast for: LTAI (ANTALYA (CIV/MIL, TR)
Text: TAF LTAI 231040Z 2312/2412 18010KT CAVOK
Forecast period: 1200 to 1400 UTC 23 January 2023
Forecast type: FROM: standard forecast or significant change
Winds: from the S (180 degrees) at 12 MPH (10 knots; 5.1 m/s)
Visibility: 6 or more miles (10+ km)
Ceiling: unknown
Clouds: missing
Weather: NSW  (no significant weather)
Text: BECMG 2314/2317 34006KT
Forecast period: 1400 UTC 23 January 2023 to 1000 UTC 24 January 2023
Forecast type: BECOMING: Conditions expected to become as follows by 1700 UTC 23 January 2023
Winds: from the NNW (340 degrees) at 7 MPH (6 knots; 3.1 m/s)
Visibility: 6 or more miles (10+ km)
Ceiling: unknown
Clouds: missing
Weather: NSW  (no significant weather)
Text: BECMG 2410/2412 18010KT
Forecast period: 1000 to 1200 UTC 24 January 2023
Forecast type: BECOMING: Conditions expected to become as follows by 1200 UTC 24 January 2023
Winds: from the S (180 degrees) at 12 MPH (10 knots; 5.1 m/s)
Visibility: 6 or more miles (10+ km)
Ceiling: unknown
Clouds: missing
Weather: NSW  (no significant weather)